sensor_id;sensor_type;location;lat;lon;timestamp;P1;durP1;ratioP1;P2;durP2;ratioP2
2784;SDS011;57944;48.722;9.316;2023-06-22T00:02:06;14.00;;;11.13;;
2784;SDS011;57944;48.722;9.316;2023-06-22T00:04:39;12.00;;;10.63;;
2784;SDS011;57944;48.722;9.316;2023-06-22T00:07:10;15.40;;;11.57;;
2784;SDS011;57944;48.722;9.316;2023-06-22T00:09:41;14.17;;;11.10;;
2784;SDS011;57944;48.722;9.316;2023-06-22T00:12:11;16.70;;;12.30;;
2784;SDS011;57944;48.722;9.316;2023-06-22T00:14:42;12.80;;;11.23;;
2784;SDS011;57944;48.722;9.316;2023-06-22T00:17:12;17.90;;;10.17;;
2784;SDS011;57944;48.722;9.316;2023-06-22T00:19:46;17.33;;;11.47;;
2784;SDS011;57944;48.722;9.316;2023-06-22T00:22:20;15.73;;;11.90;;
2784;SDS011;57944;48.722;9.316;2023-06-22T00:24:55;18.70;;;12.30;;
2784;SDS011;57944;48.722;9.316;2023-06-22T00:27:26;14.60;;;10.80;;
2784;SDS011;57944;48.722;9.316;2023-06-22T00:29:57;16.77;;;11.00;;
2784;SDS011;57944;48.722;9.316;2023-06-22T00:32:28;15.90;;;12.03;;
2784;SDS011;57944;48.722;9.316;2023-06-22T00:35:02;15.20;;;11.10;;
2784;SDS011;57944;48.722;9.316;2023-06-22T00:37:33;14.27;;;11.17;;
2784;SDS011;57944;48.722;9.316;2023-06-22T00:40:05;17.07;;;12.13;;
2784;SDS011;57944;48.722;9.316;2023-06-22T00:42:38;17.30;;;12.10;;
2784;SDS011;57944;48.722;9.316;2023-06-22T00:45:09;16.00;;;11.60;;
2784;SDS011;57944;48.722;9.316;2023-06-22T00:47:40;15.23;;;11.53;;
2784;SDS011;57944;48.722;9.316;2023-06-22T00:50:15;15.00;;;11.23;;
2784;SDS011;57944;48.722;9.316;2023-06-22T00:52:50;14.50;;;11.27;;
2784;SDS011;57944;48.722;9.316;2023-06-22T00:55:23;18.97;;;13.40;;
2784;SDS011;57944;48.722;9.316;2023-06-22T00:57:54;29.53;;;12.40;;
2784;SDS011;57944;48.722;9.316;2023-06-22T01:00:25;21.90;;;12.00;;
2784;SDS011;57944;48.722;9.316;2023-06-22T01:02:58;21.77;;;13.20;;
2784;SDS011;57944;48.722;9.316;2023-06-22T01:05:31;16.70;;;11.20;;
2784;SDS011;57944;48.722;9.316;2023-06-22T01:08:06;14.83;;;11.20;;
2784;SDS011;57944;48.722;9.316;2023-06-22T01:10:46;19.03;;;11.50;;
2784;SDS011;57944;48.722;9.316;2023-06-22T01:13:23;15.00;;;11.57;;
2784;SDS011;57944;48.722;9.316;2023-06-22T01:16:00;12.83;;;10.97;;
2784;SDS011;57944;48.722;9.316;2023-06-22T01:18:32;18.90;;;10.53;;
2784;SDS011;57944;48.722;9.316;2023-06-22T01:21:08;14.97;;;10.57;;
2784;SDS011;57944;48.722;9.316;2023-06-22T01:23:50;19.40;;;10.40;;
2784;SDS011;57944;48.722;9.316;2023-06-22T01:26:35;16.70;;;10.50;;
2784;SDS011;57944;48.722;9.316;2023-06-22T01:29:12;14.77;;;10.90;;
2784;SDS011;57944;48.722;9.316;2023-06-22T01:31:44;12.67;;;9.97;;
2784;SDS011;57944;48.722;9.316;2023-06-22T01:34:18;17.13;;;10.80;;
2784;SDS011;57944;48.722;9.316;2023-06-22T01:36:50;20.30;;;12.00;;
2784;SDS011;57944;48.722;9.316;2023-06-22T01:39:22;17.37;;;11.70;;
2784;SDS011;57944;48.722;9.316;2023-06-22T01:41:53;13.90;;;10.70;;
2784;SDS011;57944;48.722;9.316;2023-06-22T01:44:26;13.57;;;11.10;;
2784;SDS011;57944;48.722;9.316;2023-06-22T01:46:58;18.60;;;12.10;;
2784;SDS011;57944;48.722;9.316;2023-06-22T01:49:29;16.60;;;11.77;;
2784;SDS011;57944;48.722;9.316;2023-06-22T01:52:00;14.73;;;10.60;;
2784;SDS011;57944;48.722;9.316;2023-06-22T01:54:31;16.67;;;10.77;;
2784;SDS011;57944;48.722;9.316;2023-06-22T01:57:03;15.30;;;11.17;;
2784;SDS011;57944;48.722;9.316;2023-06-22T01:59:37;16.47;;;11.77;;
2784;SDS011;57944;48.722;9.316;2023-06-22T02:02:16;15.13;;;11.70;;
2784;SDS011;57944;48.722;9.316;2023-06-22T02:04:57;17.33;;;11.33;;
2784;SDS011;57944;48.722;9.316;2023-06-22T02:07:34;16.73;;;10.97;;
2784;SDS011;57944;48.722;9.316;2023-06-22T02:10:10;13.07;;;10.63;;
2784;SDS011;57944;48.722;9.316;2023-06-22T02:12:44;13.87;;;11.03;;
2784;SDS011;57944;48.722;9.316;2023-06-22T02:15:18;13.03;;;10.37;;
2784;SDS011;57944;48.722;9.316;2023-06-22T02:17:53;15.93;;;11.57;;
2784;SDS011;57944;48.722;9.316;2023-06-22T02:20:24;13.50;;;9.63;;
2784;SDS011;57944;48.722;9.316;2023-06-22T02:22:55;17.40;;;11.40;;
2784;SDS011;57944;48.722;9.316;2023-06-22T02:25:26;13.77;;;11.17;;
2784;SDS011;57944;48.722;9.316;2023-06-22T02:27:56;15.00;;;12.00;;
2784;SDS011;57944;48.722;9.316;2023-06-22T02:30:30;20.37;;;12.00;;
2784;SDS011;57944;48.722;9.316;2023-06-22T02:33:01;15.70;;;12.57;;
2784;SDS011;57944;48.722;9.316;2023-06-22T02:35:32;21.50;;;12.13;;
2784;SDS011;57944;48.722;9.316;2023-06-22T02:38:03;19.03;;;12.80;;
2784;SDS011;57944;48.722;9.316;2023-06-22T02:40:34;20.87;;;12.53;;
2784;SDS011;57944;48.722;9.316;2023-06-22T02:43:05;15.13;;;12.43;;
2784;SDS011;57944;48.722;9.316;2023-06-22T02:45:38;23.70;;;13.67;;
2784;SDS011;57944;48.722;9.316;2023-06-22T02:48:10;15.73;;;11.37;;
2784;SDS011;57944;48.722;9.316;2023-06-22T02:50:41;15.63;;;12.53;;
2784;SDS011;57944;48.722;9.316;2023-06-22T02:53:11;17.00;;;12.73;;
2784;SDS011;57944;48.722;9.316;2023-06-22T02:55:45;17.03;;;11.23;;
2784;SDS011;57944;48.722;9.316;2023-06-22T02:58:16;18.40;;;11.57;;
2784;SDS011;57944;48.722;9.316;2023-06-22T03:00:49;23.63;;;12.43;;
2784;SDS011;57944;48.722;9.316;2023-06-22T03:03:20;17.63;;;13.70;;
2784;SDS011;57944;48.722;9.316;2023-06-22T03:05:53;16.33;;;11.97;;
2784;SDS011;57944;48.722;9.316;2023-06-22T03:08:23;19.97;;;12.13;;
2784;SDS011;57944;48.722;9.316;2023-06-22T03:10:55;16.47;;;11.07;;
2784;SDS011;57944;48.722;9.316;2023-06-22T03:13:27;16.00;;;12.70;;
2784;SDS011;57944;48.722;9.316;2023-06-22T03:16:00;14.70;;;11.00;;
2784;SDS011;57944;48.722;9.316;2023-06-22T03:18:30;19.97;;;11.67;;
2784;SDS011;57944;48.722;9.316;2023-06-22T03:21:01;15.10;;;11.37;;
2784;SDS011;57944;48.722;9.316;2023-06-22T03:23:32;17.87;;;12.90;;
2784;SDS011;57944;48.722;9.316;2023-06-22T03:26:02;17.73;;;12.13;;
2784;SDS011;57944;48.722;9.316;2023-06-22T03:28:34;17.10;;;12.50;;
2784;SDS011;57944;48.722;9.316;2023-06-22T03:31:07;16.17;;;11.57;;
2784;SDS011;57944;48.722;9.316;2023-06-22T03:33:39;16.23;;;11.90;;
2784;SDS011;57944;48.722;9.316;2023-06-22T03:36:10;15.33;;;12.00;;
2784;SDS011;57944;48.722;9.316;2023-06-22T03:38:44;18.60;;;13.63;;
2784;SDS011;57944;48.722;9.316;2023-06-22T03:41:15;20.03;;;12.73;;
2784;SDS011;57944;48.722;9.316;2023-06-22T03:43:47;15.80;;;12.20;;
2784;SDS011;57944;48.722;9.316;2023-06-22T03:46:20;14.57;;;10.80;;
2784;SDS011;57944;48.722;9.316;2023-06-22T03:48:51;16.87;;;12.33;;
2784;SDS011;57944;48.722;9.316;2023-06-22T03:51:21;14.80;;;12.10;;
2784;SDS011;57944;48.722;9.316;2023-06-22T03:53:52;18.07;;;13.10;;
2784;SDS011;57944;48.722;9.316;2023-06-22T03:56:23;16.70;;;12.80;;
2784;SDS011;57944;48.722;9.316;2023-06-22T03:58:53;18.37;;;14.70;;
2784;SDS011;57944;48.722;9.316;2023-06-22T04:01:27;17.33;;;12.67;;
2784;SDS011;57944;48.722;9.316;2023-06-22T04:03:57;13.30;;;10.77;;
2784;SDS011;57944;48.722;9.316;2023-06-22T04:06:28;17.87;;;12.80;;
2784;SDS011;57944;48.722;9.316;2023-06-22T04:09:00;13.93;;;11.97;;
2784;SDS011;57944;48.722;9.316;2023-06-22T04:11:31;17.07;;;13.13;;
2784;SDS011;57944;48.722;9.316;2023-06-22T04:14:01;16.60;;;13.13;;
2784;SDS011;57944;48.722;9.316;2023-06-22T04:16:35;15.97;;;11.60;;
2784;SDS011;57944;48.722;9.316;2023-06-22T04:19:05;16.40;;;11.83;;
2784;SDS011;57944;48.722;9.316;2023-06-22T04:21:40;20.40;;;13.00;;
2784;SDS011;57944;48.722;9.316;2023-06-22T04:24:11;18.80;;;11.70;;
2784;SDS011;57944;48.722;9.316;2023-06-22T04:26:41;17.23;;;11.90;;
2784;SDS011;57944;48.722;9.316;2023-06-22T04:29:13;19.63;;;12.20;;
2784;SDS011;57944;48.722;9.316;2023-06-22T04:31:46;16.00;;;11.37;;
2784;SDS011;57944;48.722;9.316;2023-06-22T04:34:19;16.93;;;12.67;;
2784;SDS011;57944;48.722;9.316;2023-06-22T04:36:52;15.30;;;11.07;;
2784;SDS011;57944;48.722;9.316;2023-06-22T04:39:23;17.40;;;11.63;;
2784;SDS011;57944;48.722;9.316;2023-06-22T04:41:54;14.33;;;11.20;;
2784;SDS011;57944;48.722;9.316;2023-06-22T04:44:27;16.83;;;11.23;;
2784;SDS011;57944;48.722;9.316;2023-06-22T04:47:00;15.37;;;11.40;;
2784;SDS011;57944;48.722;9.316;2023-06-22T04:49:35;16.47;;;11.70;;
2784;SDS011;57944;48.722;9.316;2023-06-22T04:52:08;17.63;;;12.53;;
2784;SDS011;57944;48.722;9.316;2023-06-22T04:54:47;17.40;;;12.43;;
2784;SDS011;57944;48.722;9.316;2023-06-22T04:57:22;24.97;;;12.33;;
2784;SDS011;57944;48.722;9.316;2023-06-22T04:59:59;17.80;;;13.10;;
2784;SDS011;57944;48.722;9.316;2023-06-22T05:02:41;19.83;;;12.43;;
2784;SDS011;57944;48.722;9.316;2023-06-22T05:05:12;18.53;;;11.60;;
2784;SDS011;57944;48.722;9.316;2023-06-22T05:07:45;14.13;;;11.53;;
2784;SDS011;57944;48.722;9.316;2023-06-22T05:10:17;18.03;;;11.80;;
2784;SDS011;57944;48.722;9.316;2023-06-22T05:12:48;17.10;;;11.50;;
2784;SDS011;57944;48.722;9.316;2023-06-22T05:15:18;19.93;;;12.00;;
2784;SDS011;57944;48.722;9.316;2023-06-22T05:17:55;16.43;;;11.43;;
2784;SDS011;57944;48.722;9.316;2023-06-22T05:20:32;17.13;;;11.10;;
2784;SDS011;57944;48.722;9.316;2023-06-22T05:23:03;21.77;;;10.57;;
2784;SDS011;57944;48.722;9.316;2023-06-22T05:25:34;13.67;;;10.33;;
2784;SDS011;57944;48.722;9.316;2023-06-22T05:28:18;15.53;;;10.30;;
2784;SDS011;57944;48.722;9.316;2023-06-22T05:31:03;15.17;;;11.27;;
2784;SDS011;57944;48.722;9.316;2023-06-22T05:33:36;13.50;;;9.90;;
2784;SDS011;57944;48.722;9.316;2023-06-22T05:36:07;11.53;;;10.33;;
2784;SDS011;57944;48.722;9.316;2023-06-22T05:38:39;15.83;;;11.33;;
2784;SDS011;57944;48.722;9.316;2023-06-22T05:41:10;13.70;;;9.07;;
2784;SDS011;57944;48.722;9.316;2023-06-22T05:43:40;18.80;;;9.80;;
2784;SDS011;57944;48.722;9.316;2023-06-22T05:46:11;15.07;;;10.27;;
2784;SDS011;57944;48.722;9.316;2023-06-22T05:48:44;13.63;;;9.73;;
2784;SDS011;57944;48.722;9.316;2023-06-22T05:51:15;12.33;;;8.17;;
2784;SDS011;57944;48.722;9.316;2023-06-22T05:53:45;9.57;;;8.17;;
2784;SDS011;57944;48.722;9.316;2023-06-22T05:56:16;9.80;;;8.23;;
2784;SDS011;57944;48.722;9.316;2023-06-22T05:58:47;12.57;;;8.97;;
2784;SDS011;57944;48.722;9.316;2023-06-22T06:01:18;11.53;;;7.07;;
2784;SDS011;57944;48.722;9.316;2023-06-22T06:03:51;10.33;;;8.40;;
2784;SDS011;57944;48.722;9.316;2023-06-22T06:06:21;14.47;;;7.60;;
2784;SDS011;57944;48.722;9.316;2023-06-22T06:08:55;11.57;;;8.17;;
2784;SDS011;57944;48.722;9.316;2023-06-22T06:11:26;14.73;;;8.90;;
2784;SDS011;57944;48.722;9.316;2023-06-22T06:13:57;9.83;;;7.87;;
2784;SDS011;57944;48.722;9.316;2023-06-22T06:16:27;9.70;;;6.97;;
2784;SDS011;57944;48.722;9.316;2023-06-22T06:19:00;11.17;;;7.17;;
2784;SDS011;57944;48.722;9.316;2023-06-22T06:21:31;9.50;;;6.83;;
2784;SDS011;57944;48.722;9.316;2023-06-22T06:24:02;11.17;;;7.50;;
2784;SDS011;57944;48.722;9.316;2023-06-22T06:26:33;13.00;;;8.00;;
2784;SDS011;57944;48.722;9.316;2023-06-22T06:29:06;9.03;;;7.60;;
2784;SDS011;57944;48.722;9.316;2023-06-22T06:31:36;11.23;;;8.23;;
2784;SDS011;57944;48.722;9.316;2023-06-22T06:34:09;9.00;;;7.43;;
2784;SDS011;57944;48.722;9.316;2023-06-22T06:36:40;8.47;;;6.73;;
2784;SDS011;57944;48.722;9.316;2023-06-22T06:39:11;9.33;;;6.47;;
2784;SDS011;57944;48.722;9.316;2023-06-22T06:41:42;8.73;;;6.67;;
2784;SDS011;57944;48.722;9.316;2023-06-22T06:44:14;10.57;;;7.13;;
2784;SDS011;57944;48.722;9.316;2023-06-22T06:46:45;10.10;;;7.27;;
2784;SDS011;57944;48.722;9.316;2023-06-22T06:49:18;12.83;;;7.43;;
2784;SDS011;57944;48.722;9.316;2023-06-22T06:51:48;11.53;;;6.73;;
2784;SDS011;57944;48.722;9.316;2023-06-22T06:54:19;9.17;;;6.17;;
2784;SDS011;57944;48.722;9.316;2023-06-22T06:56:50;10.30;;;6.87;;
2784;SDS011;57944;48.722;9.316;2023-06-22T06:59:20;10.23;;;7.37;;
2784;SDS011;57944;48.722;9.316;2023-06-22T07:01:51;9.90;;;5.77;;
2784;SDS011;57944;48.722;9.316;2023-06-22T07:04:24;10.23;;;6.03;;
2784;SDS011;57944;48.722;9.316;2023-06-22T07:06:55;8.60;;;6.70;;
2784;SDS011;57944;48.722;9.316;2023-06-22T07:09:26;13.07;;;7.00;;
2784;SDS011;57944;48.722;9.316;2023-06-22T07:11:56;10.90;;;6.40;;
2784;SDS011;57944;48.722;9.316;2023-06-22T07:14:27;13.23;;;6.50;;
2784;SDS011;57944;48.722;9.316;2023-06-22T07:16:58;9.70;;;6.93;;
2784;SDS011;57944;48.722;9.316;2023-06-22T07:19:32;7.77;;;6.07;;
2784;SDS011;57944;48.722;9.316;2023-06-22T07:22:03;8.97;;;5.97;;
2784;SDS011;57944;48.722;9.316;2023-06-22T07:24:34;10.50;;;5.57;;
2784;SDS011;57944;48.722;9.316;2023-06-22T07:27:04;9.20;;;5.97;;
2784;SDS011;57944;48.722;9.316;2023-06-22T07:29:37;9.70;;;6.00;;
2784;SDS011;57944;48.722;9.316;2023-06-22T07:32:09;11.87;;;6.17;;
2784;SDS011;57944;48.722;9.316;2023-06-22T07:34:42;10.70;;;6.60;;
2784;SDS011;57944;48.722;9.316;2023-06-22T07:37:13;12.07;;;7.53;;
2784;SDS011;57944;48.722;9.316;2023-06-22T07:39:44;14.00;;;6.67;;
2784;SDS011;57944;48.722;9.316;2023-06-22T07:42:15;15.03;;;6.70;;
2784;SDS011;57944;48.722;9.316;2023-06-22T07:44:46;10.13;;;6.37;;
2784;SDS011;57944;48.722;9.316;2023-06-22T07:47:17;8.80;;;5.50;;
2784;SDS011;57944;48.722;9.316;2023-06-22T07:49:54;11.10;;;6.43;;
2784;SDS011;57944;48.722;9.316;2023-06-22T07:52:28;11.03;;;6.87;;
2784;SDS011;57944;48.722;9.316;2023-06-22T07:54:59;11.70;;;7.30;;
2784;SDS011;57944;48.722;9.316;2023-06-22T07:57:30;8.70;;;6.30;;
2784;SDS011;57944;48.722;9.316;2023-06-22T08:00:05;12.13;;;7.30;;
2784;SDS011;57944;48.722;9.316;2023-06-22T08:02:45;11.10;;;6.00;;
2784;SDS011;57944;48.722;9.316;2023-06-22T08:05:19;11.00;;;7.30;;
2784;SDS011;57944;48.722;9.316;2023-06-22T08:07:49;11.53;;;6.60;;
2784;SDS011;57944;48.722;9.316;2023-06-22T08:10:21;12.73;;;7.30;;
2784;SDS011;57944;48.722;9.316;2023-06-22T08:12:52;10.60;;;6.23;;
2784;SDS011;57944;48.722;9.316;2023-06-22T08:15:23;9.90;;;6.43;;
2784;SDS011;57944;48.722;9.316;2023-06-22T08:17:56;12.97;;;6.70;;
2784;SDS011;57944;48.722;9.316;2023-06-22T08:20:30;13.27;;;6.80;;
2784;SDS011;57944;48.722;9.316;2023-06-22T08:23:00;9.33;;;6.70;;
2784;SDS011;57944;48.722;9.316;2023-06-22T08:25:32;13.27;;;7.23;;
2784;SDS011;57944;48.722;9.316;2023-06-22T08:28:03;17.10;;;7.03;;
2784;SDS011;57944;48.722;9.316;2023-06-22T08:30:34;14.63;;;8.43;;
2784;SDS011;57944;48.722;9.316;2023-06-22T08:33:05;14.33;;;7.43;;
2784;SDS011;57944;48.722;9.316;2023-06-22T08:35:41;11.20;;;7.53;;
2784;SDS011;57944;48.722;9.316;2023-06-22T08:38:12;15.43;;;7.60;;
2784;SDS011;57944;48.722;9.316;2023-06-22T08:40:45;15.83;;;9.27;;
2784;SDS011;57944;48.722;9.316;2023-06-22T08:43:15;10.50;;;6.87;;
2784;SDS011;57944;48.722;9.316;2023-06-22T08:45:46;15.53;;;8.67;;
2784;SDS011;57944;48.722;9.316;2023-06-22T08:48:17;10.80;;;6.30;;
2784;SDS011;57944;48.722;9.316;2023-06-22T08:50:50;8.60;;;6.90;;
2784;SDS011;57944;48.722;9.316;2023-06-22T08:53:21;12.43;;;7.17;;
2784;SDS011;57944;48.722;9.316;2023-06-22T08:55:51;10.90;;;7.43;;
2784;SDS011;57944;48.722;9.316;2023-06-22T08:58:22;12.10;;;7.20;;
2784;SDS011;57944;48.722;9.316;2023-06-22T09:00:52;10.30;;;7.37;;
2784;SDS011;57944;48.722;9.316;2023-06-22T09:03:23;13.13;;;7.40;;
2784;SDS011;57944;48.722;9.316;2023-06-22T09:05:56;12.93;;;7.20;;
2784;SDS011;57944;48.722;9.316;2023-06-22T09:08:27;14.70;;;6.60;;
2784;SDS011;57944;48.722;9.316;2023-06-22T09:10:57;10.20;;;6.80;;
2784;SDS011;57944;48.722;9.316;2023-06-22T09:16:00;10.90;;;7.40;;
2784;SDS011;57944;48.722;9.316;2023-06-22T09:18:33;11.90;;;7.37;;
2784;SDS011;57944;48.722;9.316;2023-06-22T09:21:07;12.37;;;7.07;;
2784;SDS011;57944;48.722;9.316;2023-06-22T09:23:37;11.60;;;7.97;;
2784;SDS011;57944;48.722;9.316;2023-06-22T09:26:08;13.37;;;7.97;;
2784;SDS011;57944;48.722;9.316;2023-06-22T09:28:39;11.03;;;7.53;;
2784;SDS011;57944;48.722;9.316;2023-06-22T09:31:09;11.23;;;7.63;;
2784;SDS011;57944;48.722;9.316;2023-06-22T09:33:40;14.43;;;8.80;;
2784;SDS011;57944;48.722;9.316;2023-06-22T09:36:13;11.23;;;7.80;;
2784;SDS011;57944;48.722;9.316;2023-06-22T09:38:43;10.90;;;9.00;;
2784;SDS011;57944;48.722;9.316;2023-06-22T09:41:14;12.80;;;7.43;;
2784;SDS011;57944;48.722;9.316;2023-06-22T09:43:44;12.30;;;9.20;;
2784;SDS011;57944;48.722;9.316;2023-06-22T09:46:15;12.63;;;8.60;;
2784;SDS011;57944;48.722;9.316;2023-06-22T09:48:48;15.20;;;8.30;;
2784;SDS011;57944;48.722;9.316;2023-06-22T09:51:21;14.17;;;9.07;;
2784;SDS011;57944;48.722;9.316;2023-06-22T09:53:51;12.13;;;8.93;;
2784;SDS011;57944;48.722;9.316;2023-06-22T09:56:22;12.60;;;8.17;;
2784;SDS011;57944;48.722;9.316;2023-06-22T09:58:55;13.10;;;7.90;;
2784;SDS011;57944;48.722;9.316;2023-06-22T10:01:42;10.00;;;8.73;;
2784;SDS011;57944;48.722;9.316;2023-06-22T10:04:13;14.63;;;8.20;;
2784;SDS011;57944;48.722;9.316;2023-06-22T10:06:46;14.37;;;8.97;;
2784;SDS011;57944;48.722;9.316;2023-06-22T10:09:16;12.67;;;9.73;;
2784;SDS011;57944;48.722;9.316;2023-06-22T10:11:47;12.03;;;8.33;;
2784;SDS011;57944;48.722;9.316;2023-06-22T10:14:18;13.93;;;9.60;;
2784;SDS011;57944;48.722;9.316;2023-06-22T10:16:48;13.13;;;8.60;;
2784;SDS011;57944;48.722;9.316;2023-06-22T10:19:19;12.87;;;7.77;;
2784;SDS011;57944;48.722;9.316;2023-06-22T10:21:52;13.57;;;8.37;;
2784;SDS011;57944;48.722;9.316;2023-06-22T10:24:22;17.83;;;10.30;;
2784;SDS011;57944;48.722;9.316;2023-06-22T10:26:52;14.40;;;8.20;;
2784;SDS011;57944;48.722;9.316;2023-06-22T10:29:22;16.03;;;8.53;;
2784;SDS011;57944;48.722;9.316;2023-06-22T10:31:53;13.80;;;9.20;;
2784;SDS011;57944;48.722;9.316;2023-06-22T10:34:23;14.23;;;9.60;;
2784;SDS011;57944;48.722;9.316;2023-06-22T10:36:56;18.43;;;10.00;;
2784;SDS011;57944;48.722;9.316;2023-06-22T10:39:26;18.70;;;9.77;;
2784;SDS011;57944;48.722;9.316;2023-06-22T10:41:56;15.27;;;9.40;;
2784;SDS011;57944;48.722;9.316;2023-06-22T10:44:26;14.53;;;10.30;;
2784;SDS011;57944;48.722;9.316;2023-06-22T10:46:57;12.93;;;8.67;;
2784;SDS011;57944;48.722;9.316;2023-06-22T10:49:27;13.80;;;9.30;;
2784;SDS011;57944;48.722;9.316;2023-06-22T10:52:00;18.37;;;9.67;;
2784;SDS011;57944;48.722;9.316;2023-06-22T10:54:32;15.30;;;9.33;;
2784;SDS011;57944;48.722;9.316;2023-06-22T10:57:03;28.80;;;8.90;;
2784;SDS011;57944;48.722;9.316;2023-06-22T10:59:33;16.03;;;9.40;;
2784;SDS011;57944;48.722;9.316;2023-06-22T11:02:04;16.33;;;8.27;;
2784;SDS011;57944;48.722;9.316;2023-06-22T11:04:35;13.80;;;8.83;;
2784;SDS011;57944;48.722;9.316;2023-06-22T11:07:08;14.40;;;9.73;;
2784;SDS011;57944;48.722;9.316;2023-06-22T11:09:39;14.10;;;9.20;;
2784;SDS011;57944;48.722;9.316;2023-06-22T11:12:09;16.10;;;10.43;;
2784;SDS011;57944;48.722;9.316;2023-06-22T11:14:39;16.47;;;10.00;;
2784;SDS011;57944;48.722;9.316;2023-06-22T11:17:10;13.60;;;8.60;;
2784;SDS011;57944;48.722;9.316;2023-06-22T11:19:40;24.73;;;10.23;;
2784;SDS011;57944;48.722;9.316;2023-06-22T11:22:13;16.93;;;9.10;;
2784;SDS011;57944;48.722;9.316;2023-06-22T11:24:43;15.03;;;8.67;;
2784;SDS011;57944;48.722;9.316;2023-06-22T11:27:13;12.60;;;8.70;;
2784;SDS011;57944;48.722;9.316;2023-06-22T11:29:44;12.70;;;9.20;;
2784;SDS011;57944;48.722;9.316;2023-06-22T11:32:16;21.10;;;9.63;;
2784;SDS011;57944;48.722;9.316;2023-06-22T11:34:46;20.90;;;9.10;;
2784;SDS011;57944;48.722;9.316;2023-06-22T11:37:19;12.30;;;8.33;;
2784;SDS011;57944;48.722;9.316;2023-06-22T11:39:49;17.77;;;8.40;;
2784;SDS011;57944;48.722;9.316;2023-06-22T11:42:32;13.17;;;9.63;;
2784;SDS011;57944;48.722;9.316;2023-06-22T11:45:04;14.57;;;8.47;;
2784;SDS011;57944;48.722;9.316;2023-06-22T11:47:36;16.13;;;8.00;;
2784;SDS011;57944;48.722;9.316;2023-06-22T11:50:06;13.07;;;8.73;;
2784;SDS011;57944;48.722;9.316;2023-06-22T11:52:40;16.97;;;8.80;;
2784;SDS011;57944;48.722;9.316;2023-06-22T11:55:11;18.87;;;9.57;;
2784;SDS011;57944;48.722;9.316;2023-06-22T11:57:52;13.53;;;9.67;;
2784;SDS011;57944;48.722;9.316;2023-06-22T12:00:26;19.90;;;8.80;;
2784;SDS011;57944;48.722;9.316;2023-06-22T12:02:56;18.37;;;8.87;;
2784;SDS011;57944;48.722;9.316;2023-06-22T12:05:27;17.30;;;8.70;;
2784;SDS011;57944;48.722;9.316;2023-06-22T12:08:00;15.40;;;8.80;;
2784;SDS011;57944;48.722;9.316;2023-06-22T12:10:30;11.77;;;8.00;;
2784;SDS011;57944;48.722;9.316;2023-06-22T12:13:01;12.17;;;8.17;;
2784;SDS011;57944;48.722;9.316;2023-06-22T12:15:31;14.57;;;7.77;;
2784;SDS011;57944;48.722;9.316;2023-06-22T12:18:01;16.47;;;7.80;;
2784;SDS011;57944;48.722;9.316;2023-06-22T12:20:32;17.80;;;9.93;;
2784;SDS011;57944;48.722;9.316;2023-06-22T12:23:05;13.83;;;8.20;;
2784;SDS011;57944;48.722;9.316;2023-06-22T12:25:35;17.77;;;8.00;;
2784;SDS011;57944;48.722;9.316;2023-06-22T12:28:05;15.40;;;8.57;;
2784;SDS011;57944;48.722;9.316;2023-06-22T12:30:35;13.93;;;9.87;;
2784;SDS011;57944;48.722;9.316;2023-06-22T12:33:06;17.13;;;8.30;;
2784;SDS011;57944;48.722;9.316;2023-06-22T12:35:36;10.27;;;8.20;;
2784;SDS011;57944;48.722;9.316;2023-06-22T12:38:09;11.37;;;9.00;;
2784;SDS011;57944;48.722;9.316;2023-06-22T12:40:39;20.10;;;9.63;;
2784;SDS011;57944;48.722;9.316;2023-06-22T12:43:09;17.30;;;8.20;;
2784;SDS011;57944;48.722;9.316;2023-06-22T12:45:39;19.70;;;9.70;;
2784;SDS011;57944;48.722;9.316;2023-06-22T12:48:10;16.93;;;9.10;;
2784;SDS011;57944;48.722;9.316;2023-06-22T12:50:40;16.60;;;9.83;;
2784;SDS011;57944;48.722;9.316;2023-06-22T12:53:13;15.57;;;8.10;;
2784;SDS011;57944;48.722;9.316;2023-06-22T12:55:43;19.83;;;9.23;;
2784;SDS011;57944;48.722;9.316;2023-06-22T12:58:14;27.27;;;10.27;;
2784;SDS011;57944;48.722;9.316;2023-06-22T13:00:44;18.17;;;8.97;;
2784;SDS011;57944;48.722;9.316;2023-06-22T13:03:14;12.27;;;8.87;;
2784;SDS011;57944;48.722;9.316;2023-06-22T13:05:45;17.20;;;9.90;;
2784;SDS011;57944;48.722;9.316;2023-06-22T13:08:18;21.60;;;9.50;;
2784;SDS011;57944;48.722;9.316;2023-06-22T13:11:01;18.40;;;7.93;;
2784;SDS011;57944;48.722;9.316;2023-06-22T13:13:31;18.07;;;10.50;;
2784;SDS011;57944;48.722;9.316;2023-06-22T13:16:01;18.63;;;9.07;;
2784;SDS011;57944;48.722;9.316;2023-06-22T13:18:31;17.10;;;8.90;;
2784;SDS011;57944;48.722;9.316;2023-06-22T13:21:02;17.53;;;9.10;;
2784;SDS011;57944;48.722;9.316;2023-06-22T13:23:36;21.50;;;9.20;;
2784;SDS011;57944;48.722;9.316;2023-06-22T13:26:07;22.97;;;9.47;;
2784;SDS011;57944;48.722;9.316;2023-06-22T13:28:37;12.93;;;8.17;;
2784;SDS011;57944;48.722;9.316;2023-06-22T13:31:07;17.20;;;8.60;;
2784;SDS011;57944;48.722;9.316;2023-06-22T13:33:38;19.83;;;9.53;;
2784;SDS011;57944;48.722;9.316;2023-06-22T13:36:22;18.10;;;9.70;;
2784;SDS011;57944;48.722;9.316;2023-06-22T13:39:09;13.93;;;8.97;;
2784;SDS011;57944;48.722;9.316;2023-06-22T13:41:39;17.10;;;9.00;;
2784;SDS011;57944;48.722;9.316;2023-06-22T13:44:24;16.30;;;9.00;;
2784;SDS011;57944;48.722;9.316;2023-06-22T13:47:09;16.83;;;8.30;;
2784;SDS011;57944;48.722;9.316;2023-06-22T13:49:53;20.87;;;8.70;;
2784;SDS011;57944;48.722;9.316;2023-06-22T13:52:24;26.00;;;9.00;;
2784;SDS011;57944;48.722;9.316;2023-06-22T13:54:57;20.90;;;8.07;;
2784;SDS011;57944;48.722;9.316;2023-06-22T13:57:27;17.50;;;8.40;;
2784;SDS011;57944;48.722;9.316;2023-06-22T13:59:58;21.60;;;8.57;;
2784;SDS011;57944;48.722;9.316;2023-06-22T14:02:36;21.30;;;8.70;;
2784;SDS011;57944;48.722;9.316;2023-06-22T14:05:07;14.23;;;8.50;;
2784;SDS011;57944;48.722;9.316;2023-06-22T14:07:39;21.50;;;8.17;;
2784;SDS011;57944;48.722;9.316;2023-06-22T14:10:12;14.87;;;8.30;;
2784;SDS011;57944;48.722;9.316;2023-06-22T14:12:42;17.67;;;8.70;;
2784;SDS011;57944;48.722;9.316;2023-06-22T14:15:13;12.80;;;6.60;;
2784;SDS011;57944;48.722;9.316;2023-06-22T14:17:43;13.93;;;8.40;;
2784;SDS011;57944;48.722;9.316;2023-06-22T14:20:14;12.97;;;8.27;;
2784;SDS011;57944;48.722;9.316;2023-06-22T14:22:44;17.30;;;8.93;;
2784;SDS011;57944;48.722;9.316;2023-06-22T14:25:17;13.70;;;6.97;;
2784;SDS011;57944;48.722;9.316;2023-06-22T14:27:47;16.07;;;8.40;;
2784;SDS011;57944;48.722;9.316;2023-06-22T14:30:17;19.40;;;9.10;;
2784;SDS011;57944;48.722;9.316;2023-06-22T14:32:48;19.97;;;8.03;;
2784;SDS011;57944;48.722;9.316;2023-06-22T14:35:18;14.63;;;7.43;;
2784;SDS011;57944;48.722;9.316;2023-06-22T14:37:48;14.13;;;8.50;;
2784;SDS011;57944;48.722;9.316;2023-06-22T14:40:21;17.10;;;8.03;;
2784;SDS011;57944;48.722;9.316;2023-06-22T14:42:52;13.53;;;7.57;;
2784;SDS011;57944;48.722;9.316;2023-06-22T14:45:23;15.90;;;8.03;;
2784;SDS011;57944;48.722;9.316;2023-06-22T14:47:53;12.77;;;8.07;;
2784;SDS011;57944;48.722;9.316;2023-06-22T14:50:24;12.03;;;7.47;;
2784;SDS011;57944;48.722;9.316;2023-06-22T14:52:54;17.13;;;8.50;;
2784;SDS011;57944;48.722;9.316;2023-06-22T14:55:27;16.40;;;8.17;;
2784;SDS011;57944;48.722;9.316;2023-06-22T14:57:58;14.97;;;7.43;;
2784;SDS011;57944;48.722;9.316;2023-06-22T15:00:28;16.63;;;6.87;;
2784;SDS011;57944;48.722;9.316;2023-06-22T15:02:58;18.13;;;7.60;;
2784;SDS011;57944;48.722;9.316;2023-06-22T15:05:29;13.43;;;5.97;;
2784;SDS011;57944;48.722;9.316;2023-06-22T15:07:59;12.70;;;7.20;;
2784;SDS011;57944;48.722;9.316;2023-06-22T15:10:32;11.10;;;5.73;;
2784;SDS011;57944;48.722;9.316;2023-06-22T15:13:02;14.50;;;5.80;;
2784;SDS011;57944;48.722;9.316;2023-06-22T15:15:33;15.37;;;5.67;;